Monday, June 25, 2018, 3:34 PM EDT
Back to Local

KMFV, Melfa / Accomack Airport

Location: Melfa, VA, United States Lat: 37.65
Local Time: 3:34 PM EDT (19:34 GMT) Lon: -75.767
Time Zone: US/Eastern Elev: 49 ft

Show me the last for .
Show Decoded

2018-06-25 15:15 METAR KMFV 251915Z AUTO 33006KT 10SM CLR 27/20 A3007 RMK AO2 T02690195 =
2018-06-25 14:55 METAR KMFV 251855Z AUTO 31010G16KT 290V350 10SM SCT031 27/20 A3006 RMK AO2
                 T02690196 =
2018-06-25 14:35 METAR KMFV 251835Z AUTO 31010G15KT 10SM SCT031 27/19 A3006 RMK AO2 T02670190 =
2018-06-25 14:15 METAR KMFV 251815Z AUTO 31009KT 10SM CLR 27/20 A3006 RMK AO2 T02680195 =
2018-06-25 13:55 METAR KMFV 251755Z AUTO 33005KT 280V060 10SM SCT029 27/20 A3006 RMK AO2
                 T02720195 10275 20251 =
2018-06-25 13:35 METAR KMFV 251735Z AUTO 33006KT 10SM BKN029 SCT033 27/20 A3006 RMK AO2 T02690199
                 =
2018-06-25 13:15 METAR KMFV 251715Z AUTO 32007KT 300V030 10SM BKN029 BKN037 27/20 A3006 RMK AO2
                 T02700199 =
2018-06-25 12:55 METAR KMFV 251655Z AUTO 33010KT 10SM BKN029 BKN039 27/20 A3006 RMK AO2 T02710203
                 =
2018-06-25 12:35 METAR KMFV 251635Z AUTO 34006G16KT 260V090 10SM SCT029 BKN039 27/20 A3006 RMK
                 AO2 T02660197 =
2018-06-25 12:15 METAR KMFV 251615Z AUTO 34005G14KT 310V030 10SM SCT027 SCT034 27/20 A3006 RMK
                 AO2 T02720201 =
2018-06-25 11:55 METAR KMFV 251555Z AUTO 35006KT 10SM BKN027 BKN034 27/20 A3005 RMK AO2 T02680204
                 =
2018-06-25 11:35 METAR KMFV 251535Z AUTO 34005G14KT 10SM BKN027 27/21 A3005 RMK AO2 T02700206 =
2018-06-25 11:15 METAR KMFV 251515Z AUTO 32006G14KT 260V360 10SM SCT025 SCT031 27/21 A3004 RMK
                 AO2 T02720208 =
2018-06-25 10:55 METAR KMFV 251455Z AUTO 34008KT 300V140 10SM BKN025 BKN031 27/21 A3004 RMK AO2
                 T02650207 =
2018-06-25 10:35 METAR KMFV 251435Z AUTO 33007KT 10SM SCT025 SCT050 27/21 A3003 RMK AO2 T02650206
                 =
2018-06-25 10:15 METAR KMFV 251415Z AUTO 33007G15KT 10SM BKN025 BKN050 26/21 A3003 RMK AO2
                 T02600205 =
2018-06-25 09:55 METAR KMFV 251355Z AUTO 34009G15KT 320V020 10SM SCT050 26/20 A3002 RMK AO2
                 T02610202 =
2018-06-25 09:35 METAR KMFV 251335Z AUTO 33008KT 300V020 10SM SCT050 26/21 A3002 RMK AO2
                 T02620208 =
2018-06-25 09:15 METAR KMFV 251315Z AUTO 33008KT 10SM CLR 26/20 A3002 RMK AO2 T02610201 =
2018-06-25 08:55 METAR KMFV 251255Z AUTO 34008KT 310V010 10SM SCT025 SCT070 26/21 A3002 RMK AO2
                 T02610211 =
2018-06-25 08:35 METAR KMFV 251235Z AUTO 34006KT 10SM SCT023 SCT070 26/21 A3001 RMK AO2 T02550213
                 =
2018-06-25 08:15 METAR KMFV 251215Z AUTO 31005KT 10SM SCT070 25/22 A3001 RMK AO2 T02540222 =
2018-06-25 07:55 METAR KMFV 251155Z AUTO 31009G15KT 10SM SCT070 26/22 A3001 RMK AO2 70030
                 T02550218 10257 20225 =
2018-06-25 07:35 METAR KMFV 251135Z AUTO 30006KT 10SM CLR 25/23 A3000 RMK AO2 T02520225 =
2018-06-25 07:15 METAR KMFV 251115Z AUTO 28007KT 10SM CLR 25/23 A2999 RMK AO2 T02460231 =
2018-06-25 06:55 METAR KMFV 251055Z AUTO 28004KT 10SM CLR 24/23 A2998 RMK AO2 T02400228 =
2018-06-25 06:35 METAR KMFV 251035Z AUTO 28005KT 10SM CLR 24/23 A2998 RMK AO2 T02350225 =
2018-06-25 06:15 METAR KMFV 251015Z AUTO 26004KT 10SM CLR 23/22 A2997 RMK AO2 T02300223 =
2018-06-25 05:55 METAR KMFV 250955Z AUTO 26003KT 10SM SCT090 23/23 A2997 RMK AO2 T02310225 =
2018-06-25 05:35 METAR KMFV 250935Z AUTO 00000KT 10SM SCT065 BKN090 24/23 A2996 RMK AO2 T02360226
                 =
2018-06-25 05:15 METAR KMFV 250915Z AUTO 25006KT 10SM BKN065 OVC080 24/23 A2996 RMK AO2 T02350226
                 =
2018-06-25 04:55 METAR KMFV 250855Z AUTO 27005KT 10SM BKN065 24/23 A2995 RMK AO2 T02350226 =
2018-06-25 04:35 METAR KMFV 250835Z AUTO 27005KT 10SM CLR 23/23 A2994 RMK AO2 T02330226 =
2018-06-25 04:15 METAR KMFV 250815Z AUTO 28005KT 10SM CLR 23/23 A2994 RMK AO2 T02310225 =
2018-06-25 03:55 METAR KMFV 250755Z AUTO 27004KT 10SM CLR 23/23 A2993 RMK AO2 T02300225 =
2018-06-25 03:35 METAR KMFV 250735Z AUTO 25004KT 10SM CLR 23/22 A2992 RMK AO2 T02260221 =
2018-06-25 03:15 METAR KMFV 250715Z AUTO 26005KT 10SM CLR 23/22 A2991 RMK AO2 T02270221 =
2018-06-25 02:55 METAR KMFV 250655Z AUTO 24003KT 10SM CLR 23/22 A2991 RMK AO2 T02310222 =
2018-06-25 02:35 METAR KMFV 250635Z AUTO 24004KT 10SM CLR 23/22 A2991 RMK AO2 T02330223 =
2018-06-25 02:15 METAR KMFV 250615Z AUTO 29005KT 10SM CLR 24/22 A2991 RMK AO2 T02350222 =
2018-06-25 01:55 METAR KMFV 250555Z AUTO 30008KT 10SM CLR 24/23 A2991 RMK AO2 T02370225 10240
                 20220 =
2018-06-25 01:35 METAR KMFV 250535Z AUTO 28008KT 10SM CLR 24/23 A2991 RMK AO2 T02390226 =
2018-06-25 01:15 METAR KMFV 250515Z AUTO 30008KT 10SM CLR 24/23 A2991 RMK AO2 T02350226 =
2018-06-25 00:55 METAR KMFV 250455Z AUTO 26005KT 10SM CLR 24/23 A2991 RMK AO2 T02360227 403260220
                 =
2018-06-25 00:35 METAR KMFV 250435Z AUTO 26006KT 10SM CLR 24/23 A2991 RMK AO2 T02370230 =
2018-06-25 00:15 METAR KMFV 250415Z AUTO 26005KT 10SM CLR 24/23 A2991 RMK AO2 T02370228 =
2018-06-24 23:55 METAR KMFV 250355Z AUTO 28006KT 10SM CLR 24/23 A2991 RMK AO2 T02400228 =
2018-06-24 23:35 METAR KMFV 250335Z AUTO 28007KT 10SM CLR 23/23 A2991 RMK AO2 T02340227 =
2018-06-24 23:15 METAR KMFV 250315Z AUTO 28005KT 10SM CLR 23/22 A2992 RMK AO2 T02280221 =
2018-06-24 22:55 METAR KMFV 250255Z AUTO 24005KT 10SM CLR 23/22 A2991 RMK AO2 T02300218 =
2018-06-24 22:35 METAR KMFV 250235Z AUTO 24005KT 10SM CLR 23/22 A2991 RMK AO2 T02300217 =
2018-06-24 22:15 METAR KMFV 250215Z AUTO 00000KT 10SM CLR 23/22 A2989 RMK AO2 T02250216 =
2018-06-24 21:55 METAR KMFV 250155Z AUTO 19005KT 10SM CLR 23/22 A2989 RMK AO2 T02250216 =
2018-06-24 21:35 METAR KMFV 250135Z AUTO 19006KT 10SM CLR 22/22 A2989 RMK AO2 T02220217 =
2018-06-24 21:15 METAR KMFV 250115Z AUTO 00000KT 10SM CLR 22/22 A2988 RMK AO2 T02230220 =
2018-06-24 20:55 METAR KMFV 250055Z AUTO 00000KT 7SM CLR 23/22 A2987 RMK AO2 T02250220 =
2018-06-24 20:35 METAR KMFV 250035Z AUTO 00000KT 10SM SCT075 SCT120 23/22 A2988 RMK AO2 T02260219
                 =
2018-06-24 20:15 METAR KMFV 250015Z AUTO 00000KT 10SM BKN120 23/22 A2988 RMK AO2 LTG DSNT E AND
                 SE T02290219 =
2018-06-24 19:55 METAR KMFV 242355Z AUTO 00000KT 10SM SCT018 BKN100 23/22 A2989 RMK AO2 LTG DSNT
                 E THRU S P0026 60030 T02300215 10326 20225 =
2018-06-24 19:35 METAR KMFV 242335Z AUTO 33004KT 10SM -VCTSRA SCT010 BKN019 BKN035 23/21 A2990
                 RMK AO2 LTG DSNT ALQS P0025 T02250212 =
2018-06-24 19:15 METAR KMFV 242315Z AUTO 30011G19KT 1 1/2SM +TSRA SCT020 BKN038 OVC050 23/22
                 A2990 RMK AO2 LTG DSNT ALQS P0025 T02340220 =
2018-06-24 18:55 METAR KMFV 242255Z AUTO 16007KT 10SM VCTS SCT020 BKN055 OVC095 24/22 A2987 RMK
                 AO2 LTG DSNT ALQS P0004 T02390215 =
2018-06-24 18:35 METAR KMFV 242235Z AUTO 24009KT 4SM VCTSRA SCT022 SCT040 OVC110 25/23 A2989 RMK
                 AO2 LTG DSNT ALQS P0003 T02500231 =
2018-06-24 18:15 METAR KMFV 242215Z AUTO 00000KT 10SM VCTS SCT120 28/23 A2986 RMK AO2 LTG DSNT SW
                 THRU NW T02750227 =
2018-06-24 17:55 METAR KMFV 242155Z AUTO 00000KT 10SM SCT075 28/22 A2984 RMK AO2 T02770221 =
2018-06-24 17:35 METAR KMFV 242135Z AUTO 36005KT 10SM SCT040 SCT055 BKN090 28/22 A2986 RMK AO2
                 T02770216 =
2018-06-24 17:15 METAR KMFV 242115Z AUTO 32010G15KT 300V360 10SM CLR 31/23 A2986 RMK AO2 LTG DSNT
                 N T03140226 =
2018-06-24 16:55 METAR KMFV 242055Z AUTO 26007KT 10SM CLR 33/22 A2985 RMK AO2 LTG DSNT N AND NW
                 T03250220 =
2018-06-24 16:35 METAR KMFV 242035Z AUTO 25008KT 10SM VCTS CLR 32/22 A2984 RMK AO2 LTG DSNT N
                 T03240224 =
2018-06-24 16:15 METAR KMFV 242015Z AUTO 23007KT 10SM CLR 32/22 A2985 RMK AO2 LTG DSNT N AND NW
                 T03230224 =
2018-06-24 15:55 METAR KMFV 241955Z AUTO 27008KT 10SM CLR 32/22 A2984 RMK AO2 T03220224 =
2018-06-24 15:35 METAR KMFV 241935Z AUTO 25006KT 10SM CLR 32/24 A2984 RMK AO2 LTG DSNT NW
                 T03220236 =

Support USWX by starting your Amazon purchase here.